createdAt,value
2022-10-14T00:02:31.064Z,57.20
2022-10-14T00:05:40.375Z,63.30
2022-10-14T00:08:44.599Z,58.30
2022-10-14T00:11:50.121Z,61.20
2022-10-14T00:14:52.976Z,64.20
2022-10-14T00:17:56.022Z,59.80
2022-10-14T00:21:01.723Z,57.30
2022-10-14T00:24:06.256Z,57.90
2022-10-14T00:27:09.282Z,63.60
2022-10-14T00:30:12.692Z,57.60
2022-10-14T00:33:15.533Z,59.20
2022-10-14T00:36:20.579Z,61.00
2022-10-14T00:39:23.473Z,59.30
2022-10-14T00:42:26.710Z,59.90
2022-10-14T00:45:29.545Z,63.60
2022-10-14T00:48:32.430Z,63.60
2022-10-14T00:51:38.659Z,62.00
2022-10-14T00:54:48.976Z,60.30
2022-10-14T00:57:52.127Z,60.20
2022-10-14T01:00:55.191Z,59.80
2022-10-14T01:03:58.333Z,57.30
2022-10-14T01:07:03.913Z,56.50
2022-10-14T01:10:09.862Z,56.20
2022-10-14T01:13:35.245Z,65.80
2022-10-14T01:16:56.911Z,59.60
2022-10-14T01:20:17.989Z,57.20
2022-10-14T01:23:51.465Z,61.70
2022-10-14T01:26:57.281Z,57.70
2022-10-14T01:30:11.409Z,60.10
2022-10-14T01:33:25.175Z,63.20
2022-10-14T01:36:48.821Z,61.50
2022-10-14T01:39:57.669Z,60.40
2022-10-14T01:43:03.355Z,60.70
2022-10-14T01:46:08.234Z,61.10
2022-10-14T01:49:14.881Z,58.80
2022-10-14T01:52:27.575Z,60.80
2022-10-14T01:55:35.691Z,57.80
2022-10-14T01:58:41.055Z,60.40
2022-10-14T02:01:44.025Z,65.00
2022-10-14T02:04:48.370Z,56.10
2022-10-14T02:08:06.978Z,60.00
2022-10-14T02:11:15.521Z,58.10
2022-10-14T02:14:43.716Z,63.00
2022-10-14T02:18:00.010Z,61.30
2022-10-14T02:21:24.504Z,61.20
2022-10-14T02:24:32.128Z,58.30
2022-10-14T02:27:36.660Z,57.30
2022-10-14T02:30:44.578Z,58.00
2022-10-14T02:33:51.742Z,57.40
2022-10-14T02:36:55.708Z,63.20
2022-10-14T02:40:04.715Z,59.60
2022-10-14T02:43:10.233Z,62.50
2022-10-14T02:46:13.673Z,61.40
2022-10-14T02:49:17.219Z,60.40
2022-10-14T02:52:21.169Z,61.70
2022-10-14T02:55:24.350Z,59.00
2022-10-14T02:58:27.233Z,63.30
2022-10-14T03:01:37.304Z,61.70
2022-10-14T03:04:40.905Z,56.30
2022-10-14T03:07:44.443Z,56.10
2022-10-14T03:10:48.864Z,59.10
2022-10-14T03:13:52.027Z,60.60
2022-10-14T03:16:56.325Z,54.40
2022-10-14T03:20:00.385Z,59.70
2022-10-14T03:23:03.332Z,61.30
2022-10-14T03:26:13.829Z,54.70
2022-10-14T03:29:19.108Z,58.70
2022-10-14T03:32:32.851Z,61.90
2022-10-14T03:35:55.451Z,55.20
2022-10-14T03:39:07.207Z,60.70
2022-10-14T03:42:14.930Z,59.20
2022-10-14T03:45:20.988Z,60.70
2022-10-14T03:48:24.967Z,58.10
2022-10-14T03:51:31.536Z,57.80
2022-10-14T03:54:43.748Z,57.60
2022-10-14T03:57:47.451Z,52.90
2022-10-14T04:00:51.337Z,56.40
2022-10-14T04:04:09.349Z,56.40
2022-10-14T04:07:12.466Z,54.40
2022-10-14T04:10:17.625Z,52.00
2022-10-14T04:13:24.667Z,49.50
2022-10-14T04:16:27.879Z,51.40
2022-10-14T04:19:41.256Z,51.90
2022-10-14T04:22:44.266Z,49.70
2022-10-14T04:25:47.555Z,54.30
2022-10-14T04:28:50.629Z,54.30
2022-10-14T04:32:05.617Z,53.00
2022-10-14T04:35:09.698Z,57.50
2022-10-14T04:38:16.835Z,63.50
2022-10-14T04:41:27.465Z,63.10
2022-10-14T04:44:31.327Z,63.50
2022-10-14T04:47:36.073Z,63.20
2022-10-14T04:50:39.166Z,67.00
2022-10-14T04:54:06.460Z,63.40
2022-10-14T04:57:20.515Z,62.00
2022-10-14T05:00:23.881Z,59.60
2022-10-14T05:03:29.900Z,55.70
2022-10-14T05:06:32.856Z,60.30
2022-10-14T05:09:35.772Z,56.70
2022-10-14T05:12:39.853Z,55.40
2022-10-14T05:15:42.764Z,55.10
2022-10-14T05:18:47.748Z,56.10
2022-10-14T05:21:50.772Z,53.10
2022-10-14T05:25:01.499Z,56.70
2022-10-14T05:28:04.746Z,59.30
2022-10-14T05:31:08.204Z,60.20
2022-10-14T05:34:17.108Z,58.80
2022-10-14T05:37:20.953Z,58.60
2022-10-14T05:40:26.722Z,54.20
2022-10-14T05:43:32.606Z,57.30
2022-10-14T05:46:36.837Z,63.00
2022-10-14T05:49:40.209Z,63.80
2022-10-14T05:52:43.458Z,62.20
2022-10-14T05:56:03.261Z,63.60
2022-10-14T05:59:07.079Z,66.80
2022-10-14T06:02:10.226Z,66.70
2022-10-14T06:05:13.646Z,65.30
2022-10-14T06:08:17.413Z,67.00
2022-10-14T06:11:20.690Z,71.60
2022-10-14T06:14:23.581Z,63.80
2022-10-14T06:17:29.089Z,67.10
2022-10-14T06:20:32.200Z,61.60
2022-10-14T06:23:35.375Z,62.70
2022-10-14T06:26:38.426Z,56.20
2022-10-14T06:29:41.354Z,63.70
2022-10-14T06:32:44.432Z,57.40
2022-10-14T06:35:48.032Z,64.30
2022-10-14T06:38:50.860Z,59.00
2022-10-14T06:41:55.204Z,60.20
2022-10-14T06:44:59.647Z,62.30
2022-10-14T06:48:04.448Z,58.90
2022-10-14T06:51:07.322Z,62.30
2022-10-14T06:54:10.647Z,62.60
2022-10-14T06:57:13.456Z,63.70
2022-10-14T07:00:17.266Z,65.10
2022-10-14T07:03:20.633Z,63.10
2022-10-14T07:06:23.869Z,63.60
2022-10-14T07:09:26.668Z,62.50
2022-10-14T07:12:29.446Z,62.90
2022-10-14T07:15:35.380Z,67.30
2022-10-14T07:18:39.382Z,67.20
2022-10-14T07:21:42.931Z,72.50
2022-10-14T07:24:45.736Z,72.20
2022-10-14T07:27:48.585Z,88.60
2022-10-14T07:31:12.170Z,100.60
2022-10-14T07:34:14.976Z,95.00
2022-10-14T07:37:17.847Z,101.60
2022-10-14T07:40:21.275Z,88.30
2022-10-14T07:43:24.100Z,78.20
2022-10-14T07:46:32.224Z,72.70
2022-10-14T07:49:36.144Z,71.90
2022-10-14T07:52:39.202Z,69.00
2022-10-14T07:55:52.131Z,70.20
2022-10-14T07:58:56.283Z,70.20
2022-10-14T08:01:59.636Z,78.70
2022-10-14T08:05:25.422Z,83.40
2022-10-14T08:08:28.517Z,72.10
2022-10-14T08:11:31.646Z,72.80
2022-10-14T08:14:34.536Z,71.80
2022-10-14T08:17:37.370Z,67.40
2022-10-14T08:20:40.203Z,65.70
2022-10-14T08:23:43.111Z,67.20
2022-10-14T08:26:59.565Z,63.90
2022-10-14T08:30:07.313Z,63.00
2022-10-14T08:33:14.275Z,54.90
2022-10-14T08:36:18.498Z,57.40
2022-10-14T08:39:21.825Z,52.80
2022-10-14T08:42:50.996Z,52.70
2022-10-14T08:46:16.955Z,53.40
2022-10-14T08:49:34.764Z,56.00
2022-10-14T08:52:50.165Z,53.50
2022-10-14T08:55:57.215Z,53.00
2022-10-14T08:59:06.210Z,53.10
2022-10-14T09:02:38.204Z,47.90
2022-10-14T09:05:41.227Z,39.40
2022-10-14T09:08:46.811Z,41.50
2022-10-14T09:11:55.678Z,38.80
2022-10-14T09:15:13.744Z,34.10
2022-10-14T09:18:25.944Z,36.60
2022-10-14T09:21:40.309Z,35.80
2022-10-14T09:24:54.414Z,38.20
2022-10-14T09:27:57.239Z,34.00
2022-10-14T09:31:00.088Z,37.90
2022-10-14T09:34:03.068Z,35.10
2022-10-14T09:37:22.076Z,35.30
2022-10-14T09:40:28.870Z,37.60
2022-10-14T09:43:31.702Z,38.30
2022-10-14T09:46:35.498Z,36.50
2022-10-14T09:49:45.809Z,38.90
2022-10-14T09:53:01.776Z,39.30
2022-10-14T09:56:07.153Z,37.50
2022-10-14T09:59:21.640Z,35.70
2022-10-14T10:02:42.383Z,36.60
2022-10-14T10:05:45.756Z,40.50
2022-10-14T10:09:01.628Z,40.70
2022-10-14T10:12:26.394Z,39.30
2022-10-14T10:15:29.794Z,38.70
2022-10-14T10:18:32.559Z,40.30
2022-10-14T10:21:36.930Z,42.00
2022-10-14T10:24:39.712Z,43.00
2022-10-14T10:27:45.680Z,41.00
2022-10-14T10:31:18.224Z,41.00
2022-10-14T10:34:36.342Z,38.70
2022-10-14T10:37:58.306Z,35.60
2022-10-14T10:41:22.859Z,38.80
2022-10-14T10:44:41.535Z,31.30
2022-10-14T10:48:34.105Z,28.80
2022-10-14T10:51:59.302Z,33.70
2022-10-14T10:55:13.373Z,26.00
2022-10-14T10:58:35.609Z,29.80
2022-10-14T11:01:41.380Z,27.00
2022-10-14T11:04:55.398Z,26.20
2022-10-14T11:08:16.854Z,26.60
2022-10-14T11:11:44.917Z,35.90
2022-10-14T11:14:47.658Z,31.10
2022-10-14T11:18:07.645Z,30.50
2022-10-14T11:21:35.659Z,23.60
2022-10-14T11:24:44.376Z,24.70
2022-10-14T11:27:57.284Z,27.10
2022-10-14T11:31:28.642Z,27.80
2022-10-14T11:34:57.036Z,26.40
2022-10-14T11:38:08.810Z,28.20
2022-10-14T11:41:24.990Z,30.30
2022-10-14T11:44:38.125Z,27.00
2022-10-14T11:47:44.082Z,26.60
2022-10-14T11:50:53.187Z,26.00
2022-10-14T11:54:22.817Z,27.20
2022-10-14T11:57:33.617Z,28.20
2022-10-14T12:00:37.934Z,26.00
2022-10-14T12:04:10.983Z,25.80
2022-10-14T12:07:28.150Z,26.50
2022-10-14T12:10:51.675Z,26.90
2022-10-14T12:14:04.579Z,24.20
2022-10-14T12:17:21.119Z,27.80
2022-10-14T12:20:36.387Z,38.30
2022-10-14T12:23:52.212Z,34.60
2022-10-14T12:26:58.473Z,25.20
2022-10-14T12:30:03.047Z,27.70
2022-10-14T12:33:09.711Z,27.60
2022-10-14T12:36:33.411Z,26.00
2022-10-14T12:39:42.327Z,31.50
2022-10-14T12:42:48.489Z,28.90
2022-10-14T12:45:58.322Z,24.40
2022-10-14T12:49:01.359Z,35.10
2022-10-14T12:52:08.179Z,31.00
2022-10-14T12:55:22.830Z,30.30
2022-10-14T12:58:40.444Z,32.00
2022-10-14T13:01:44.031Z,23.60
2022-10-14T13:04:54.156Z,28.40
2022-10-14T13:08:20.306Z,27.80
2022-10-14T13:11:28.241Z,26.30
2022-10-14T13:14:53.682Z,31.10
2022-10-14T13:17:56.546Z,26.20
2022-10-14T13:20:59.422Z,28.60
2022-10-14T13:24:16.076Z,30.90
2022-10-14T13:27:36.822Z,29.00
2022-10-14T13:31:06.842Z,32.10
2022-10-14T13:34:14.303Z,31.30
2022-10-14T13:37:35.919Z,25.70
2022-10-14T13:40:43.635Z,30.30
2022-10-14T13:43:46.568Z,25.50
2022-10-14T13:46:50.053Z,27.10
2022-10-14T13:49:52.970Z,26.10
2022-10-14T13:53:03.566Z,27.30
2022-10-14T13:56:21.866Z,30.80
2022-10-14T13:59:43.780Z,29.70
2022-10-14T14:02:56.697Z,30.10
2022-10-14T14:06:17.542Z,28.40
2022-10-14T14:09:24.319Z,32.60
2022-10-14T14:12:27.762Z,28.90
2022-10-14T14:15:30.755Z,25.00
2022-10-14T14:18:43.159Z,29.70
2022-10-14T14:22:21.475Z,30.60
2022-10-14T14:25:46.456Z,34.60
2022-10-14T14:28:52.531Z,36.30
2022-10-14T14:32:12.833Z,33.30
2022-10-14T14:35:22.063Z,37.30
2022-10-14T14:38:35.749Z,34.00
2022-10-14T14:41:39.015Z,53.10
2022-10-14T14:44:43.474Z,48.30
2022-10-14T14:47:52.195Z,35.10
2022-10-14T14:50:55.674Z,34.40
2022-10-14T14:53:59.262Z,33.40
2022-10-14T14:57:06.765Z,35.10
2022-10-14T15:00:19.035Z,32.20
2022-10-14T15:03:26.062Z,28.20
2022-10-14T15:06:29.886Z,33.90
2022-10-14T15:09:49.302Z,43.00
2022-10-14T15:12:55.767Z,33.20
2022-10-14T15:16:00.321Z,34.40
2022-10-14T15:19:37.447Z,33.10
2022-10-14T15:22:43.678Z,32.90
2022-10-14T15:25:58.209Z,35.40
2022-10-14T15:29:15.506Z,37.50
2022-10-14T15:32:18.607Z,39.40
2022-10-14T15:35:22.469Z,36.10
2022-10-14T15:38:26.234Z,34.00
2022-10-14T15:41:29.782Z,35.40
2022-10-14T15:44:32.723Z,35.10
2022-10-14T15:47:36.449Z,33.30
2022-10-14T15:50:39.587Z,34.10
2022-10-14T15:53:42.457Z,48.60
2022-10-14T15:56:46.385Z,71.80
2022-10-14T15:59:50.809Z,57.20
2022-10-14T16:02:58.365Z,48.70
2022-10-14T16:09:09.348Z,41.30
2022-10-14T16:12:14.011Z,46.40
2022-10-14T16:15:30.973Z,45.70
2022-10-14T16:18:33.927Z,51.30
2022-10-14T16:21:38.052Z,47.00
2022-10-14T16:24:40.834Z,54.10
2022-10-14T16:27:43.660Z,53.10
2022-10-14T16:30:50.637Z,56.20
2022-10-14T16:33:56.973Z,67.40
2022-10-14T16:37:00.260Z,70.10
2022-10-14T16:40:03.254Z,60.80
2022-10-14T16:43:06.224Z,63.50
2022-10-14T16:46:11.842Z,66.90
2022-10-14T16:49:17.904Z,63.20
2022-10-14T16:52:21.473Z,63.00
2022-10-14T16:55:24.631Z,59.80
2022-10-14T16:58:28.246Z,66.70
2022-10-14T17:01:31.496Z,57.70
2022-10-14T17:04:34.451Z,60.70
2022-10-14T17:07:37.768Z,63.70
2022-10-14T17:10:40.649Z,60.00
2022-10-14T17:13:44.067Z,61.60
2022-10-14T17:16:48.227Z,49.90
2022-10-14T17:19:53.963Z,50.20
2022-10-14T17:22:57.266Z,50.00
2022-10-14T17:26:03.429Z,43.70
2022-10-14T17:29:06.500Z,44.40
2022-10-14T17:32:12.362Z,41.60
2022-10-14T17:35:15.564Z,48.80
2022-10-14T17:38:19.536Z,42.60
2022-10-14T17:41:24.354Z,48.70
2022-10-14T17:44:28.935Z,45.80
2022-10-14T17:47:32.546Z,49.80
2022-10-14T17:50:38.577Z,46.20
2022-10-14T17:53:41.554Z,49.70
2022-10-14T17:56:44.446Z,51.10
2022-10-14T17:59:47.372Z,47.00
2022-10-14T18:02:50.394Z,47.60
2022-10-14T18:05:53.404Z,46.10
2022-10-14T18:09:05.854Z,42.50
2022-10-14T18:12:10.050Z,47.70
2022-10-14T18:15:13.322Z,45.30
2022-10-14T18:18:16.154Z,50.80
2022-10-14T18:21:19.278Z,48.80
2022-10-14T18:24:23.169Z,49.40
2022-10-14T18:27:26.181Z,50.90
2022-10-14T18:30:29.021Z,49.70
2022-10-14T18:33:34.581Z,45.50
2022-10-14T18:36:38.357Z,49.20
2022-10-14T18:39:41.323Z,52.90
2022-10-14T18:42:44.125Z,52.90
2022-10-14T18:45:46.927Z,50.80
2022-10-14T18:48:53.037Z,47.00
2022-10-14T18:51:55.858Z,49.00
2022-10-14T18:55:00.066Z,48.60
2022-10-14T18:58:03.091Z,42.70
2022-10-14T19:01:06.653Z,45.50
2022-10-14T19:04:14.904Z,43.60
2022-10-14T19:07:17.781Z,46.30
2022-10-14T19:10:20.607Z,43.90
2022-10-14T19:13:23.407Z,47.90
2022-10-14T19:16:31.860Z,42.60
2022-10-14T19:19:34.714Z,49.50
2022-10-14T19:22:40.838Z,45.80
2022-10-14T19:25:43.647Z,50.50
2022-10-14T19:28:47.130Z,51.10
2022-10-14T19:31:50.710Z,46.40
2022-10-14T19:34:53.767Z,51.60
2022-10-14T19:37:56.594Z,50.60
2022-10-14T19:41:00.551Z,50.70
2022-10-14T19:44:03.594Z,51.30
2022-10-14T19:47:06.466Z,49.50
2022-10-14T19:50:09.490Z,52.40
2022-10-14T19:53:12.483Z,53.10
2022-10-14T19:56:15.389Z,50.40
2022-10-14T19:59:18.411Z,48.50
2022-10-14T20:02:21.327Z,53.00
2022-10-14T20:05:24.203Z,54.60
2022-10-14T20:08:27.751Z,48.30
2022-10-14T20:11:31.344Z,49.20
2022-10-14T20:14:34.265Z,49.30
2022-10-14T20:17:37.085Z,49.10
2022-10-14T20:20:39.940Z,47.80
2022-10-14T20:23:43.559Z,50.60
2022-10-14T20:26:46.732Z,49.10
2022-10-14T20:29:49.560Z,48.30
2022-10-14T20:32:53.635Z,50.60
2022-10-14T20:36:08.563Z,56.50
2022-10-14T20:39:11.732Z,53.20
2022-10-14T20:42:14.581Z,54.30
2022-10-14T20:45:17.388Z,47.20
2022-10-14T20:48:20.244Z,53.00
2022-10-14T20:51:23.366Z,50.20
2022-10-14T20:54:26.212Z,49.80
2022-10-14T20:57:29.066Z,51.50
2022-10-14T21:00:31.916Z,49.80
2022-10-14T21:03:35.133Z,50.80
2022-10-14T21:06:38.958Z,47.10
2022-10-14T21:09:42.037Z,48.20
2022-10-14T21:12:48.017Z,52.60
2022-10-14T21:15:51.736Z,46.10
2022-10-14T21:18:58.234Z,48.20
2022-10-14T21:22:01.179Z,51.10
2022-10-14T21:25:04.219Z,54.30
2022-10-14T21:28:07.142Z,51.00
2022-10-14T21:31:13.724Z,57.50
2022-10-14T21:34:19.837Z,54.20
2022-10-14T21:37:22.784Z,49.50
2022-10-14T21:40:25.810Z,53.90
2022-10-14T21:43:30.823Z,51.10
2022-10-14T21:46:34.545Z,48.80
2022-10-14T21:49:37.375Z,54.10
2022-10-14T21:52:40.131Z,49.30
2022-10-14T21:55:43.077Z,53.40
2022-10-14T21:58:46.223Z,54.00
2022-10-14T22:01:49.099Z,52.40
2022-10-14T22:04:51.965Z,49.60
2022-10-14T22:07:54.786Z,47.30
2022-10-14T22:10:57.758Z,52.90
2022-10-14T22:14:02.387Z,42.80
2022-10-14T22:17:05.267Z,46.70
2022-10-14T22:20:08.441Z,46.80
2022-10-14T22:23:11.246Z,45.40
2022-10-14T22:26:16.818Z,45.00
2022-10-14T22:29:20.158Z,43.30
2022-10-14T22:32:23.183Z,45.90
2022-10-14T22:35:26.206Z,43.90
2022-10-14T22:38:29.038Z,51.50
2022-10-14T22:41:35.512Z,46.00
2022-10-14T22:44:38.826Z,50.90
2022-10-14T22:47:41.719Z,46.60
2022-10-14T22:50:44.502Z,45.80
2022-10-14T22:53:47.444Z,50.90
2022-10-14T22:56:50.379Z,47.50
2022-10-14T22:59:53.189Z,51.00
2022-10-14T23:02:56.236Z,49.20
2022-10-14T23:06:06.874Z,49.20
2022-10-14T23:09:09.705Z,45.50
2022-10-14T23:12:12.579Z,52.40
2022-10-14T23:15:15.429Z,54.40
2022-10-14T23:18:18.271Z,52.10
2022-10-14T23:21:25.155Z,55.10
2022-10-14T23:24:28.037Z,54.70
2022-10-14T23:27:32.888Z,51.30
2022-10-14T23:30:38.560Z,48.80
2022-10-14T23:33:41.825Z,50.90
2022-10-14T23:36:44.818Z,47.90
2022-10-14T23:39:47.771Z,47.70
2022-10-14T23:42:51.046Z,50.70
2022-10-14T23:45:54.114Z,46.20
2022-10-14T23:49:07.357Z,46.40
2022-10-14T23:52:17.000Z,45.10
2022-10-14T23:55:19.812Z,46.40
2022-10-14T23:58:23.359Z,43.50
